Time;durP1;ratioP1;P1;durP2;ratioP2;P2;SDS_P1;SDS_P2;PMS_P1;PMS_P2;Temp;Humidity;BMP_temperature;BMP_pressure;BME280_temperature;BME280_humidity;BME280_pressure;Samples;Min_cycle;Max_cycle;Signal;HPM_P1;HPM_P2
2023/02/27 00:01:44;;;;;;;12.20;10.57;;;-1.50;99.90;;;;;;5076048;28;20385;-87
2023/02/27 00:04:09;;;;;;;11.75;9.35;;;-1.70;99.90;;;;;;5076248;28;20736;-88
2023/02/27 00:06:35;;;;;;;11.80;10.38;;;-1.60;99.90;;;;;;5073324;28;20390;-88
2023/02/27 00:09:01;;;;;;;10.80;9.07;;;-1.90;99.90;;;;;;5073357;28;20394;-88
2023/02/27 00:11:27;;;;;;;9.07;7.57;;;-1.90;99.90;;;;;;5073812;28;20382;-87
2023/02/27 00:13:52;;;;;;;12.25;9.25;;;-1.80;99.90;;;;;;5075408;28;20424;-91
2023/02/27 00:16:18;;;;;;;8.73;7.50;;;-2.10;99.90;;;;;;5074593;28;20398;-87
2023/02/27 00:18:44;;;;;;;8.05;7.00;;;-2.20;99.90;;;;;;5073417;28;20396;-86
2023/02/27 00:21:09;;;;;;;8.77;6.97;;;-2.10;99.90;;;;;;5073462;28;20408;-88
2023/02/27 00:23:35;;;;;;;8.38;7.45;;;-2.30;99.90;;;;;;5073237;28;20804;-89
2023/02/27 00:26:01;;;;;;;7.10;6.28;;;-2.40;99.90;;;;;;5073463;28;20370;-88
2023/02/27 00:28:27;;;;;;;7.30;6.32;;;-2.30;99.90;;;;;;5070290;28;21028;-88
2023/02/27 00:30:53;;;;;;;7.00;5.97;;;-2.40;99.90;;;;;;5070116;28;20385;-87
2023/02/27 00:33:19;;;;;;;7.63;6.32;;;-2.50;99.90;;;;;;5078515;28;20425;-89
2023/02/27 00:35:44;;;;;;;6.68;5.80;;;-2.70;99.90;;;;;;5078003;28;20370;-87
2023/02/27 00:38:10;;;;;;;6.45;5.45;;;-2.70;99.90;;;;;;5078917;28;20419;-87
2023/02/27 00:40:36;;;;;;;6.07;5.40;;;-2.60;99.90;;;;;;5079369;28;20378;-87
2023/02/27 00:43:03;;;;;;;7.03;5.65;;;-2.70;99.90;;;;;;5076965;28;20406;-86
2023/02/27 00:45:29;;;;;;;6.53;5.88;;;-2.80;99.90;;;;;;5080159;28;20432;-86
2023/02/27 00:47:54;;;;;;;6.50;5.37;;;-2.80;99.90;;;;;;5079121;28;20394;-86
2023/02/27 00:50:20;;;;;;;5.80;5.20;;;-2.80;99.90;;;;;;5076174;28;20402;-85
2023/02/27 00:52:46;;;;;;;6.27;5.47;;;-2.90;99.90;;;;;;5077783;28;20389;-86
2023/02/27 00:55:12;;;;;;;5.97;5.10;;;-2.80;99.90;;;;;;5076211;28;20449;-88
2023/02/27 00:57:38;;;;;;;5.53;4.60;;;-2.80;99.90;;;;;;5076081;28;20431;-87
2023/02/27 01:00:06;;;;;;;6.55;5.43;;;-2.80;99.90;;;;;;5077454;28;20427;-89
2023/02/27 01:02:32;;;;;;;6.05;4.38;;;-3.00;99.90;;;;;;5074400;28;20402;-89
2023/02/27 01:04:58;;;;;;;5.80;5.20;;;-3.10;99.90;;;;;;5075671;28;20444;-86
2023/02/27 01:07:24;;;;;;;6.63;5.40;;;-3.10;99.90;;;;;;5075929;28;20851;-87
2023/02/27 01:09:49;;;;;;;6.77;5.27;;;-3.20;99.90;;;;;;5075887;28;20868;-87
2023/02/27 01:12:15;;;;;;;6.43;5.40;;;-3.10;99.90;;;;;;5075797;28;20378;-87
2023/02/27 01:14:42;;;;;;;5.97;5.38;;;-3.20;99.90;;;;;;5073375;28;21044;-87
2023/02/27 01:17:08;;;;;;;6.88;6.18;;;-3.10;99.90;;;;;;5073380;28;20378;-89
2023/02/27 01:19:34;;;;;;;6.22;5.50;;;-3.20;99.90;;;;;;5074367;28;20386;-85
2023/02/27 01:22:00;;;;;;;6.53;5.40;;;-3.30;99.90;;;;;;5074240;28;20390;-86
2023/02/27 01:24:25;;;;;;;6.00;5.40;;;-3.30;99.90;;;;;;5073880;28;20778;-85
2023/02/27 01:26:51;;;;;;;6.57;5.18;;;-3.20;99.90;;;;;;5073315;28;20386;-84
2023/02/27 01:29:17;;;;;;;6.15;5.55;;;-3.30;99.90;;;;;;5075571;28;20446;-85
2023/02/27 01:31:43;;;;;;;7.10;5.63;;;-3.50;99.90;;;;;;5077551;28;20365;-86
2023/02/27 01:34:08;;;;;;;5.78;5.18;;;-3.50;99.90;;;;;;5072785;28;20890;-86
2023/02/27 01:36:34;;;;;;;6.40;4.95;;;-3.30;99.90;;;;;;5072839;28;20387;-90
2023/02/27 01:39:00;;;;;;;6.38;5.18;;;-3.30;99.90;;;;;;5072925;28;20400;-86
2023/02/27 01:41:25;;;;;;;5.32;4.60;;;-3.40;99.90;;;;;;5070014;28;20429;-86
2023/02/27 01:44:06;;;;;;;6.50;5.05;;;-3.40;99.90;;;;;;5071736;28;20385;-90
2023/02/27 01:46:33;;;;;;;6.07;4.35;;;-3.50;99.90;;;;;;5075122;28;20378;-88
2023/02/27 01:49:08;;;;;;;5.05;4.22;;;-3.50;99.90;;;;;;5071982;28;20405;-88
2023/02/27 01:51:43;;;;;;;6.18;4.22;;;-3.60;99.90;;;;;;5071435;28;20437;-86
2023/02/27 01:54:10;;;;;;;5.13;3.65;;;-3.60;99.90;;;;;;5069751;28;20477;-87
2023/02/27 01:56:36;;;;;;;4.07;3.60;;;-3.60;99.90;;;;;;5068101;28;20393;-87
2023/02/27 01:59:05;;;;;;;4.43;3.70;;;-3.60;99.90;;;;;;5068454;28;20370;-87
2023/02/27 02:01:32;;;;;;;4.25;3.60;;;-3.60;99.90;;;;;;5067889;28;20374;-88
2023/02/27 02:04:06;;;;;;;4.35;3.47;;;-3.60;99.90;;;;;;5067938;28;20410;-87
2023/02/27 02:06:36;;;;;;;4.55;3.35;;;-3.60;99.90;;;;;;5068770;28;20410;-88
2023/02/27 02:09:03;;;;;;;4.18;3.70;;;-3.60;99.90;;;;;;5068169;28;20386;-88
2023/02/27 02:11:29;;;;;;;5.63;3.67;;;-3.70;99.90;;;;;;5068771;28;20390;-87
2023/02/27 02:13:58;;;;;;;3.58;3.28;;;-3.70;99.90;;;;;;5068628;28;20374;-87
2023/02/27 02:16:44;;;;;;;5.05;3.70;;;-3.70;99.90;;;;;;5066835;28;20382;-87
2023/02/27 02:19:10;;;;;;;4.10;3.47;;;-3.80;99.90;;;;;;5068591;28;20385;-86
2023/02/27 02:22:08;;;;;;;4.03;3.40;;;-3.80;99.90;;;;;;3448326;22;20621;-87
2023/02/27 02:24:55;;;;;;;4.25;3.30;;;-3.90;99.90;;;;;;5005107;28;20917;-88
2023/02/27 02:27:30;;;;;;;10.20;7.63;;;-3.90;99.90;;;;;;5007204;28;20402;-88
2023/02/27 02:30:27;;;;;;;6.68;5.97;;;-3.90;99.90;;;;;;5009667;28;20375;-86
2023/02/27 02:33:24;;;;;;;5.85;5.25;;;-3.90;99.90;;;;;;5008944;28;20414;-89
2023/02/27 02:36:14;;;;;;;6.13;5.50;;;-4.10;99.90;;;;;;5010762;28;20488;-87
2023/02/27 02:38:54;;;;;;;5.70;5.10;;;-4.20;99.90;;;;;;5012076;28;20513;-87
2023/02/27 02:41:55;;;;;;;6.05;5.30;;;-4.10;99.90;;;;;;5010560;28;20482;-89
2023/02/27 02:44:51;;;;;;;6.90;5.93;;;-4.10;99.90;;;;;;5005999;28;20498;-89
2023/02/27 02:47:43;;;;;;;6.35;5.70;;;-4.10;99.90;;;;;;5011795;28;20861;-86
2023/02/27 02:50:24;;;;;;;7.55;6.22;;;-4.10;99.90;;;;;;5015476;28;20887;-87
2023/02/27 02:53:23;;;;;;;6.90;5.93;;;-4.20;99.90;;;;;;5013172;28;20406;-85
2023/02/27 02:56:23;;;;;;;6.35;5.68;;;-4.30;99.90;;;;;;5015352;28;21100;-86
2023/02/27 02:59:15;;;;;;;7.30;6.05;;;-4.30;99.90;;;;;;5025189;28;20399;-87
2023/02/27 03:01:46;;;;;;;7.38;6.32;;;-4.30;99.90;;;;;;5014701;28;20396;-86
2023/02/27 03:04:19;;;;;;;7.05;6.10;;;-4.20;99.90;;;;;;5013563;28;20431;-87
2023/02/27 03:06:54;;;;;;;6.85;5.40;;;-4.20;99.90;;;;;;5013654;28;20490;-86
2023/02/27 03:09:48;;;;;;;6.28;5.47;;;-4.20;99.90;;;;;;5014592;28;20401;-86
2023/02/27 03:12:20;;;;;;;8.17;5.83;;;-4.20;99.90;;;;;;5032297;28;21189;-86
2023/02/27 03:14:49;;;;;;;7.03;6.28;;;-4.20;99.90;;;;;;5018837;28;20441;-89
2023/02/27 03:17:23;;;;;;;6.70;5.72;;;-4.20;99.90;;;;;;5014517;28;20442;-87
2023/02/27 03:19:58;;;;;;;7.90;5.95;;;-4.20;99.90;;;;;;5020135;28;20383;-86
2023/02/27 03:22:41;;;;;;;7.43;6.03;;;-4.30;99.90;;;;;;5018396;28;20415;-86
2023/02/27 03:25:10;;;;;;;8.07;6.10;;;-4.30;99.90;;;;;;5018386;28;20438;-87
2023/02/27 03:27:42;;;;;;;8.15;6.30;;;-4.30;99.90;;;;;;5016612;28;20411;-86
2023/02/27 03:30:14;;;;;;;7.50;6.32;;;-4.30;99.90;;;;;;5013413;28;20375;-87
2023/02/27 03:32:48;;;;;;;6.30;5.70;;;-4.20;99.90;;;;;;5011440;28;20445;-89
2023/02/27 03:35:15;;;;;;;7.32;5.68;;;-4.20;99.90;;;;;;5013016;28;20419;-88
2023/02/27 03:38:00;;;;;;;7.30;5.28;;;-4.20;99.90;;;;;;5011443;28;20403;-89
2023/02/27 03:40:51;;;;;;;6.00;5.28;;;-4.00;99.90;;;;;;5011958;28;20395;-88
2023/02/27 03:43:26;;;;;;;7.13;5.97;;;-4.10;99.90;;;;;;5013900;28;20411;-88
2023/02/27 03:46:18;;;;;;;7.90;6.22;;;-4.30;99.90;;;;;;5018052;28;20418;-85
2023/02/27 03:48:45;;;;;;;7.30;6.57;;;-4.40;99.90;;;;;;5008343;28;21246;-88
2023/02/27 03:51:17;;;;;;;6.93;6.22;;;-4.40;99.90;;;;;;5011528;28;20401;-86
2023/02/27 03:53:55;;;;;;;7.05;6.32;;;-4.30;99.90;;;;;;5010473;28;20442;-88
2023/02/27 03:56:28;;;;;;;7.28;6.03;;;-4.30;99.90;;;;;;5010836;28;20386;-86
2023/02/27 03:58:54;;;;;;;6.25;5.65;;;-4.30;99.90;;;;;;5010847;28;20383;-84
2023/02/27 04:01:20;;;;;;;6.60;5.43;;;-4.10;99.90;;;;;;5009543;28;20415;-86
2023/02/27 04:03:55;;;;;;;5.85;5.22;;;-4.20;99.90;;;;;;5010004;28;20411;-87
2023/02/27 04:09:20;;;;;;;6.53;5.65;;;-4.00;99.90;;;;;;5005286;28;20461;-86
2023/02/27 04:12:20;;;;;;;6.22;5.18;;;-4.20;99.90;;;;;;5002886;28;20415;-88
2023/02/27 04:15:10;;;;;;;5.90;5.10;;;-4.40;99.90;;;;;;5010033;28;20387;-86
2023/02/27 04:17:56;;;;;;;6.65;5.63;;;-4.40;99.90;;;;;;5007703;28;20380;-88
2023/02/27 04:20:22;;;;;;;6.05;5.45;;;-4.50;99.90;;;;;;5010263;28;20390;-88
2023/02/27 04:23:01;;;;;;;6.03;5.22;;;-4.50;99.90;;;;;;5024284;28;20426;-88
2023/02/27 04:25:46;;;;;;;6.75;5.30;;;-4.60;99.90;;;;;;5009623;28;20387;-88
2023/02/27 04:28:24;;;;;;;6.95;5.68;;;-4.60;99.90;;;;;;5008333;28;20387;-85
2023/02/27 04:31:02;;;;;;;6.72;5.57;;;-4.80;99.90;;;;;;5008204;28;20897;-89
2023/02/27 04:33:35;;;;;;;5.93;5.32;;;-4.80;99.90;;;;;;5006072;28;20616;-86
2023/02/27 04:36:27;;;;;;;5.23;4.60;;;-4.60;99.90;;;;;;5010273;28;20445;-87
2023/02/27 04:39:02;;;;;;;7.10;5.50;;;-4.50;99.90;;;;;;5002709;28;20390;-87
2023/02/27 04:41:47;;;;;;;5.93;5.32;;;-4.70;99.90;;;;;;5000599;28;20401;-87
2023/02/27 04:44:17;;;;;;;6.43;4.90;;;-4.80;99.90;;;;;;5006764;28;20471;-88
2023/02/27 04:46:45;;;;;;;7.28;5.18;;;-4.80;99.90;;;;;;5006351;28;20408;-87
2023/02/27 04:49:26;;;;;;;7.18;5.22;;;-4.60;99.90;;;;;;5007078;28;20388;-88
2023/02/27 04:52:05;;;;;;;6.27;5.30;;;-4.70;99.90;;;;;;5010773;28;20459;-87
2023/02/27 04:54:55;;;;;;;5.72;4.95;;;-4.70;99.90;;;;;;5011226;28;20430;-87
2023/02/27 04:57:34;;;;;;;5.15;4.65;;;-4.80;99.90;;;;;;5012520;28;20525;-89
2023/02/27 05:00:05;;;;;;;5.35;4.57;;;-4.90;99.90;;;;;;5015068;28;20399;-89
2023/02/27 05:02:37;;;;;;;6.37;5.07;;;-4.80;99.90;;;;;;5001071;28;20922;-89
2023/02/27 05:05:08;;;;;;;5.90;5.20;;;-4.90;99.90;;;;;;5012434;28;20383;-90
2023/02/27 05:07:45;;;;;;;6.45;4.88;;;-5.00;99.90;;;;;;5011275;28;20883;-87
2023/02/27 05:10:20;;;;;;;5.17;4.67;;;-5.00;99.90;;;;;;5009742;28;20418;-89
2023/02/27 05:12:57;;;;;;;6.72;5.22;;;-5.00;99.90;;;;;;5011305;28;20889;-88
2023/02/27 05:15:31;;;;;;;5.75;4.55;;;-5.00;99.90;;;;;;5014697;28;20450;-88
2023/02/27 05:18:07;;;;;;;5.70;5.07;;;-5.00;99.90;;;;;;5006830;28;20444;-88
2023/02/27 05:20:55;;;;;;;5.03;4.50;;;-5.10;99.90;;;;;;5007800;28;20699;-89
2023/02/27 05:23:29;;;;;;;6.20;4.85;;;-5.10;99.90;;;;;;5007866;28;20505;-90
2023/02/27 05:26:01;;;;;;;6.78;5.72;;;-5.20;99.90;;;;;;5017021;28;20966;-89
2023/02/27 05:28:35;;;;;;;6.75;5.72;;;-5.10;99.90;;;;;;5008213;28;20511;-88
2023/02/27 05:31:14;;;;;;;6.75;5.78;;;-5.20;99.90;;;;;;5008816;28;20387;-86
2023/02/27 05:34:04;;;;;;;5.93;5.03;;;-5.20;99.90;;;;;;5010701;28;22089;-87
2023/02/27 05:36:37;;;;;;;7.47;4.75;;;-5.00;99.90;;;;;;5010687;28;20399;-88
2023/02/27 05:39:06;;;;;;;5.30;4.75;;;-5.30;99.90;;;;;;5007206;28;20474;-87
2023/02/27 05:41:47;;;;;;;5.07;4.55;;;-5.10;99.90;;;;;;5009672;28;20386;-87
2023/02/27 05:44:28;;;;;;;5.97;4.47;;;-5.10;99.90;;;;;;5007990;28;20415;-89
2023/02/27 05:46:58;;;;;;;5.28;4.78;;;-5.00;99.90;;;;;;5006820;28;20422;-88
2023/02/27 05:49:42;;;;;;;7.75;6.07;;;-5.00;99.90;;;;;;5007854;28;20546;-88
2023/02/27 05:52:13;;;;;;;8.93;6.03;;;-5.00;99.90;;;;;;5007020;28;20403;-87
2023/02/27 05:54:46;;;;;;;7.93;6.28;;;-5.10;99.90;;;;;;5010181;28;20569;-88
2023/02/27 05:57:16;;;;;;;6.07;5.22;;;-5.10;99.90;;;;;;5005377;28;20422;-87
2023/02/27 05:59:48;;;;;;;6.40;5.20;;;-5.10;99.90;;;;;;5008021;28;20390;-87
2023/02/27 06:02:14;;;;;;;5.10;4.60;;;-5.10;99.90;;;;;;5008951;28;20417;-87
2023/02/27 06:04:40;;;;;;;5.07;4.37;;;-5.10;99.90;;;;;;5010414;28;20383;-87
2023/02/27 06:07:06;;;;;;;6.70;4.60;;;-4.90;99.90;;;;;;5011660;28;20394;-87
2023/02/27 06:09:33;;;;;;;5.10;4.20;;;-4.80;99.90;;;;;;5001729;28;20519;-89
2023/02/27 06:12:00;;;;;;;5.88;4.65;;;-5.00;99.90;;;;;;5012171;28;20391;-87
2023/02/27 06:14:26;;;;;;;8.43;6.30;;;-5.00;99.90;;;;;;5014676;28;20392;-88
2023/02/27 06:16:51;;;;;;;8.60;6.20;;;-5.00;99.90;;;;;;5016344;28;20380;-86
2023/02/27 06:19:17;;;;;;;6.53;4.95;;;-5.00;99.90;;;;;;5008194;28;20481;-86
2023/02/27 06:21:43;;;;;;;6.10;4.82;;;-4.80;99.90;;;;;;5020291;28;20440;-86
2023/02/27 06:24:09;;;;;;;7.40;5.03;;;-4.70;99.90;;;;;;5019284;28;20897;-88
2023/02/27 06:26:35;;;;;;;6.10;5.00;;;-4.80;99.90;;;;;;5020202;28;20387;-86
2023/02/27 06:29:00;;;;;;;5.30;4.40;;;-4.90;99.90;;;;;;5021629;28;20471;-86
2023/02/27 06:31:26;;;;;;;5.28;4.50;;;-4.90;99.90;;;;;;5019896;28;20434;-86
2023/02/27 06:33:54;;;;;;;5.05;4.55;;;-4.70;99.90;;;;;;5021917;28;20380;-89
2023/02/27 06:36:28;;;;;;;5.95;4.35;;;-4.60;99.90;;;;;;5019244;28;20387;-88
2023/02/27 06:38:54;;;;;;;5.57;4.33;;;-4.30;99.90;;;;;;5020518;28;20467;-87
2023/02/27 06:41:20;;;;;;;5.90;4.65;;;-4.10;99.90;;;;;;5019083;28;20395;-88
2023/02/27 06:43:49;;;;;;;5.30;4.38;;;-4.00;99.90;;;;;;5019203;28;20411;-88
2023/02/27 06:46:20;;;;;;;5.68;4.32;;;-3.90;99.90;;;;;;5014068;28;20375;-89
2023/02/27 06:48:46;;;;;;;6.43;4.43;;;-3.80;99.90;;;;;;5014147;28;20525;-88
2023/02/27 06:51:11;;;;;;;5.73;4.73;;;-3.90;99.90;;;;;;5015952;28;20427;-88
2023/02/27 06:53:42;;;;;;;5.50;4.30;;;-3.70;99.90;;;;;;5014579;28;20383;-88
2023/02/27 06:56:10;;;;;;;5.95;4.32;;;-3.60;99.90;;;;;;5016572;28;20387;-89
2023/02/27 06:58:36;;;;;;;4.30;3.30;;;-3.80;99.90;;;;;;5031750;28;20403;-88
2023/02/27 07:01:02;;;;;;;6.15;4.68;;;-3.60;99.90;;;;;;5015181;28;20503;-90
2023/02/27 07:03:29;;;;;;;7.35;4.70;;;-3.70;99.90;;;;;;5014461;28;20403;-86
2023/02/27 07:05:58;;;;;;;4.67;4.27;;;-3.70;99.90;;;;;;5012338;28;20458;-90
2023/02/27 07:08:24;;;;;;;7.95;5.97;;;-3.50;99.90;;;;;;5014031;28;20441;-89
2023/02/27 07:10:51;;;;;;;8.00;6.60;;;-3.40;99.90;;;;;;5012246;28;20383;-90
2023/02/27 07:13:17;;;;;;;7.97;6.10;;;-3.30;99.90;;;;;;5010515;28;20406;-88
2023/02/27 07:15:45;;;;;;;6.60;5.95;;;-3.10;99.90;;;;;;5012320;28;20411;-86
2023/02/27 07:18:11;;;;;;;5.55;5.05;;;-2.70;99.90;;;;;;5017374;28;20395;-85
2023/02/27 07:20:37;;;;;;;5.72;5.00;;;-2.40;99.90;;;;;;5013503;28;20407;-85
2023/02/27 07:23:03;;;;;;;7.43;6.50;;;-2.20;99.90;;;;;;5020345;28;20411;-86
2023/02/27 07:25:29;;;;;;;6.70;5.85;;;-2.00;99.90;;;;;;5015211;28;20430;-86
2023/02/27 07:27:55;;;;;;;8.57;6.63;;;-1.90;99.90;;;;;;5009768;28;20386;-87
2023/02/27 07:30:20;;;;;;;6.93;5.70;;;-1.80;99.90;;;;;;5008280;28;20408;-86
2023/02/27 07:32:46;;;;;;;7.83;5.37;;;-1.60;99.90;;;;;;5010959;28;20399;-90
2023/02/27 07:35:12;;;;;;;7.05;4.78;;;-1.10;99.90;;;;;;5011035;28;20387;-87
2023/02/27 07:37:38;;;;;;;5.55;4.50;;;-0.70;99.90;;;;;;5011810;28;20395;-90
2023/02/27 07:40:06;;;;;;;5.55;4.00;;;-0.40;99.90;;;;;;5011228;28;20383;-87
2023/02/27 07:42:32;;;;;;;7.07;4.10;;;-0.30;99.90;;;;;;5012976;28;20422;-87
2023/02/27 07:45:01;;;;;;;5.93;3.90;;;0.00;99.90;;;;;;5016042;28;20458;-86
2023/02/27 07:47:29;;;;;;;5.67;3.77;;;0.50;99.90;;;;;;5015328;28;20379;-88
2023/02/27 07:49:57;;;;;;;8.40;4.45;;;-0.10;99.90;;;;;;5013834;28;20391;-87
2023/02/27 07:52:23;;;;;;;4.55;4.05;;;-0.40;99.90;;;;;;5011720;28;20907;-85
2023/02/27 07:54:49;;;;;;;7.78;3.72;;;-0.40;99.90;;;;;;5013838;28;20470;-84
2023/02/27 07:57:14;;;;;;;6.38;4.07;;;-0.60;99.90;;;;;;5013403;28;20426;-80
2023/02/27 07:59:40;;;;;;;7.60;3.75;;;-0.40;99.90;;;;;;5017030;28;20379;-77
2023/02/27 08:02:06;;;;;;;6.07;3.33;;;-0.20;99.90;;;;;;5014883;28;20410;-79
2023/02/27 08:11:39;;;;;;;6.38;3.88;;;0.10;99.90;;;;;;4992555;28;20457;-89
2023/02/27 08:14:14;;;;;;;6.20;3.72;;;0.30;99.90;;;;;;5013821;28;20387;-87
2023/02/27 08:16:47;;;;;;;6.67;3.70;;;0.30;99.90;;;;;;5012641;28;20425;-88
2023/02/27 08:19:17;;;;;;;5.28;3.90;;;0.40;99.90;;;;;;5001045;28;20401;-87
2023/02/27 08:21:43;;;;;;;8.45;4.10;;;0.40;99.90;;;;;;4991894;28;20455;-87
2023/02/27 08:24:09;;;;;;;6.63;4.03;;;0.60;99.90;;;;;;4993508;28;20898;-86
2023/02/27 08:26:35;;;;;;;7.40;4.22;;;0.70;99.90;;;;;;4996996;28;20389;-87
2023/02/27 08:29:01;;;;;;;7.35;4.13;;;0.70;99.90;;;;;;4998246;28;20729;-84
2023/02/27 08:31:26;;;;;;;6.40;4.15;;;0.80;99.90;;;;;;5022601;28;20411;-86
2023/02/27 08:33:52;;;;;;;9.03;4.37;;;0.70;99.90;;;;;;5017608;28;20394;-86
2023/02/27 08:36:18;;;;;;;11.00;4.47;;;0.80;99.90;;;;;;5018095;28;20383;-85
2023/02/27 08:38:44;;;;;;;7.13;4.27;;;0.90;99.90;;;;;;5016082;28;20402;-86
2023/02/27 08:41:09;;;;;;;6.53;4.40;;;1.00;99.90;;;;;;5014893;28;20457;-87
2023/02/27 08:43:35;;;;;;;7.67;4.30;;;0.80;99.90;;;;;;5016978;28;20743;-87
2023/02/27 08:46:01;;;;;;;6.57;4.05;;;0.90;99.90;;;;;;5016932;28;21041;-87
2023/02/27 08:48:27;;;;;;;7.38;4.22;;;0.90;99.90;;;;;;5015174;28;20430;-87
2023/02/27 08:50:53;;;;;;;8.27;4.40;;;1.30;99.90;;;;;;5009742;28;20475;-87
2023/02/27 08:53:18;;;;;;;5.57;4.25;;;0.90;99.90;;;;;;5016449;28;20382;-87
2023/02/27 08:55:52;;;;;;;6.57;4.00;;;1.10;99.90;;;;;;5013530;28;20470;-88
2023/02/27 08:58:19;;;;;;;6.78;4.10;;;1.70;99.90;;;;;;5013189;28;20458;-88
2023/02/27 09:00:45;;;;;;;6.88;4.43;;;1.90;99.90;;;;;;5012433;28;20499;-87
2023/02/27 09:03:11;;;;;;;5.93;4.10;;;1.80;99.90;;;;;;5012953;28;20407;-87
2023/02/27 09:05:37;;;;;;;6.17;4.17;;;1.90;99.90;;;;;;5011935;28;20414;-87
2023/02/27 09:08:04;;;;;;;7.15;4.47;;;2.20;99.90;;;;;;5011456;28;21174;-87
2023/02/27 09:10:34;;;;;;;8.80;4.43;;;2.30;99.90;;;;;;5010352;28;20914;-87
2023/02/27 09:13:02;;;;;;;6.63;4.20;;;2.40;99.90;;;;;;5015465;28;20398;-86
2023/02/27 09:15:30;;;;;;;5.50;3.97;;;2.30;99.90;;;;;;5014271;28;21070;-88
2023/02/27 09:18:01;;;;;;;6.90;4.40;;;2.00;99.90;;;;;;5013853;28;20394;-85
2023/02/27 09:20:27;;;;;;;6.40;3.83;;;2.30;99.90;;;;;;5017174;28;20405;-86
2023/02/27 09:22:57;;;;;;;5.80;4.28;;;2.70;99.90;;;;;;5020155;28;20406;-86
2023/02/27 09:25:23;;;;;;;7.07;4.00;;;3.10;99.90;;;;;;5019995;28;20395;-86
2023/02/27 09:27:53;;;;;;;9.13;4.15;;;3.30;99.90;;;;;;5006875;28;20470;-86
2023/02/27 09:30:19;;;;;;;7.03;4.25;;;3.20;99.90;;;;;;5009212;28;20395;-86
2023/02/27 09:32:47;;;;;;;8.73;3.72;;;3.30;99.90;;;;;;5008308;28;20455;-88
2023/02/27 09:35:18;;;;;;;7.22;3.70;;;3.70;99.90;;;;;;5009642;28;20704;-86
2023/02/27 09:37:44;;;;;;;7.05;3.67;;;4.10;99.90;;;;;;5009757;28;20446;-86
2023/02/27 09:40:26;;;;;;;7.18;3.63;;;3.80;99.90;;;;;;5012263;28;20447;-88
2023/02/27 09:43:07;;;;;;;5.82;4.15;;;3.70;99.90;;;;;;5010640;28;20403;-88
2023/02/27 09:45:37;;;;;;;6.80;4.22;;;3.80;99.90;;;;;;5012102;28;20399;-87
2023/02/27 09:48:36;;;;;;;6.72;3.80;;;3.80;99.90;;;;;;5008577;28;20476;-89
2023/02/27 09:51:03;;;;;;;7.20;4.28;;;3.80;99.90;;;;;;5008907;28;20403;-89
2023/02/27 09:53:40;;;;;;;7.65;4.82;;;3.40;99.90;;;;;;5009637;28;20487;-90
2023/02/27 09:56:20;;;;;;;6.78;3.60;;;3.40;99.90;;;;;;5010038;28;20793;-87
2023/02/27 09:59:01;;;;;;;7.50;3.90;;;3.70;99.90;;;;;;5009798;28;20912;-88
2023/02/27 10:01:42;;;;;;;5.72;3.83;;;3.90;99.90;;;;;;5023953;28;20401;-87
2023/02/27 10:04:31;;;;;;;6.53;3.93;;;3.80;99.90;;;;;;5006467;28;20411;-88
2023/02/27 10:07:02;;;;;;;6.60;3.88;;;4.20;99.90;;;;;;5009903;28;20409;-87
2023/02/27 10:09:34;;;;;;;6.25;3.80;;;4.30;99.90;;;;;;5008248;28;20413;-88
2023/02/27 10:12:18;;;;;;;6.95;3.90;;;4.60;99.90;;;;;;5014280;28;20439;-87
2023/02/27 10:15:12;;;;;;;7.10;3.78;;;4.80;99.90;;;;;;5010904;28;20404;-88
2023/02/27 10:17:49;;;;;;;8.65;3.60;;;5.00;99.90;;;;;;4993559;28;20763;-90
2023/02/27 10:20:29;;;;;;;7.32;3.60;;;5.20;99.90;;;;;;5004155;28;20808;-87
2023/02/27 10:23:00;;;;;;;6.23;3.37;;;5.00;99.90;;;;;;5005097;28;20985;-90
2023/02/27 10:25:27;;;;;;;3.70;3.23;;;5.10;99.90;;;;;;5006171;28;20476;-88
2023/02/27 10:28:00;;;;;;;6.40;3.30;;;5.20;99.90;;;;;;5005056;28;20466;-87
2023/02/27 10:30:28;;;;;;;5.38;3.72;;;5.70;99.90;;;;;;5018701;28;20389;-87
2023/02/27 10:33:32;;;;;;;5.38;3.75;;;6.00;99.90;;;;;;5004002;28;20409;-86
2023/02/27 10:35:58;;;;;;;6.43;4.00;;;6.00;99.90;;;;;;5002696;28;20385;-86
2023/02/27 10:38:44;;;;;;;6.82;4.07;;;5.10;99.90;;;;;;5002659;28;20389;-86
2023/02/27 10:41:13;;;;;;;5.80;3.60;;;5.00;99.90;;;;;;5004679;28;20911;-87
2023/02/27 10:43:40;;;;;;;5.55;3.20;;;5.30;99.90;;;;;;5004248;28;20482;-86
2023/02/27 10:46:26;;;;;;;4.38;2.97;;;5.70;99.90;;;;;;5000433;28;20403;-84
2023/02/27 10:48:57;;;;;;;6.00;3.10;;;6.10;99.90;;;;;;5005988;28;20407;-85
2023/02/27 10:51:30;;;;;;;7.50;3.55;;;6.00;99.90;;;;;;4999979;28;20954;-84
2023/02/27 10:54:20;;;;;;;6.80;3.15;;;6.10;99.90;;;;;;5005127;28;20411;-85
2023/02/27 10:56:54;;;;;;;4.90;3.03;;;6.40;99.90;;;;;;5004734;28;20379;-86
2023/02/27 10:59:40;;;;;;;4.25;3.00;;;6.40;99.90;;;;;;5002763;28;20412;-86
2023/02/27 11:02:24;;;;;;;4.35;2.75;;;6.50;99.90;;;;;;5003094;28;20389;-86
2023/02/27 11:04:57;;;;;;;4.18;2.75;;;6.10;99.90;;;;;;5005933;28;20900;-87
2023/02/27 11:07:44;;;;;;;4.72;2.30;;;6.30;99.90;;;;;;5004425;28;20401;-87
2023/02/27 11:10:13;;;;;;;4.72;2.65;;;6.40;99.90;;;;;;5004612;28;20395;-87
2023/02/27 11:12:40;;;;;;;4.10;3.15;;;6.90;99.90;;;;;;5002360;28;20416;-86
2023/02/27 11:15:16;;;;;;;4.47;3.30;;;6.90;99.90;;;;;;5001952;28;20371;-87
2023/02/27 11:17:42;;;;;;;5.95;2.67;;;7.00;99.90;;;;;;5002543;28;20409;-88
2023/02/27 11:20:34;;;;;;;3.25;2.80;;;7.10;99.90;;;;;;5006467;28;20381;-87
2023/02/27 11:23:28;;;;;;;4.40;3.00;;;6.90;99.90;;;;;;5004308;28;20405;-88
2023/02/27 11:26:14;;;;;;;3.35;2.05;;;6.50;99.90;;;;;;5007966;28;20403;-87
2023/02/27 11:28:41;;;;;;;3.72;1.63;;;5.70;99.90;;;;;;5005066;28;20387;-88
2023/02/27 11:31:20;;;;;;;3.08;1.90;;;5.90;99.90;;;;;;5005506;28;20389;-88
2023/02/27 11:33:57;;;;;;;3.10;2.22;;;6.00;99.90;;;;;;5007304;28;20829;-89
2023/02/27 11:36:42;;;;;;;3.45;2.10;;;6.30;99.90;;;;;;5025621;28;20419;-85
2023/02/27 11:39:25;;;;;;;4.00;2.65;;;6.50;99.90;;;;;;5027271;28;20906;-87
2023/02/27 11:41:53;;;;;;;5.43;2.55;;;6.40;99.90;;;;;;5025117;28;20403;-86
2023/02/27 11:44:24;;;;;;;3.88;2.70;;;6.00;99.90;;;;;;5013403;28;20384;-86
2023/02/27 11:46:50;;;;;;;3.97;2.55;;;5.90;99.90;;;;;;5011085;28;20379;-87
2023/02/27 11:49:46;;;;;;;3.75;2.42;;;5.20;99.90;;;;;;5009980;28;20394;-89
2023/02/27 11:52:25;;;;;;;3.97;2.70;;;5.40;99.90;;;;;;5028706;28;20399;-86
2023/02/27 11:54:54;;;;;;;3.30;2.78;;;5.70;99.90;;;;;;5005535;28;20395;-87
2023/02/27 11:57:22;;;;;;;3.55;2.33;;;5.70;99.90;;;;;;5002982;28;20379;-88
2023/02/27 12:00:05;;;;;;;4.10;2.80;;;5.50;99.90;;;;;;5003542;28;20384;-84
2023/02/27 12:02:49;;;;;;;4.70;3.27;;;5.30;99.90;;;;;;5003678;28;20393;-85
2023/02/27 12:05:49;;;;;;;3.70;2.30;;;4.90;99.90;;;;;;5008538;28;20804;-86
2023/02/27 12:08:36;;;;;;;3.17;1.75;;;5.10;99.90;;;;;;4982726;28;20410;-87
2023/02/27 12:11:11;;;;;;;2.53;2.28;;;5.00;99.90;;;;;;5004485;28;20924;-87
2023/02/27 12:13:40;;;;;;;2.35;1.50;;;4.80;99.90;;;;;;5005431;28;20413;-86
2023/02/27 12:16:09;;;;;;;3.00;1.87;;;4.90;99.90;;;;;;5001295;28;20377;-88
2023/02/27 12:18:46;;;;;;;2.72;1.50;;;4.80;99.90;;;;;;5011285;28;20383;-87
2023/02/27 12:21:22;;;;;;;2.28;1.63;;;5.00;99.90;;;;;;5012829;28;20774;-86
2023/02/27 12:24:06;;;;;;;3.30;2.00;;;5.30;99.90;;;;;;5015112;28;20497;-89
2023/02/27 12:26:44;;;;;;;3.03;1.83;;;5.10;99.90;;;;;;5031882;28;20385;-88
2023/02/27 12:29:30;;;;;;;3.13;2.10;;;5.10;99.90;;;;;;5012452;28;20393;-86
2023/02/27 12:32:04;;;;;;;3.45;2.42;;;5.10;99.90;;;;;;5015248;28;20392;-85
2023/02/27 12:34:46;;;;;;;4.05;2.50;;;4.90;99.90;;;;;;5015287;28;20409;-86
2023/02/27 12:37:32;;;;;;;3.80;2.40;;;4.80;99.90;;;;;;5015721;28;20377;-84
2023/02/27 12:40:12;;;;;;;5.30;2.67;;;4.60;99.90;;;;;;5014158;28;20415;-87
2023/02/27 12:43:09;;;;;;;3.17;2.55;;;4.30;99.90;;;;;;5007910;28;20385;-85
2023/02/27 12:46:24;;;;;;;3.55;2.50;;;4.40;99.90;;;;;;5007923;28;20464;-85
2023/02/27 12:49:04;;;;;;;4.72;2.42;;;4.40;99.90;;;;;;5022621;28;20401;-86
2023/02/27 12:51:49;;;;;;;3.38;2.10;;;4.60;99.90;;;;;;5008203;28;20400;-85
2023/02/27 12:54:41;;;;;;;3.08;2.00;;;4.70;99.90;;;;;;5024793;28;20872;-86
2023/02/27 12:57:15;;;;;;;4.78;2.60;;;4.90;99.90;;;;;;5012867;28;20393;-86
2023/02/27 13:00:15;;;;;;;2.17;1.95;;;4.90;99.90;;;;;;5007424;28;20376;-84
2023/02/27 13:03:19;;;;;;;2.38;1.80;;;4.70;99.90;;;;;;5013294;28;20484;-85
2023/02/27 13:06:27;;;;;;;1.80;1.58;;;4.80;99.90;;;;;;5014235;28;20416;-87
2023/02/27 13:09:02;;;;;;;2.58;1.80;;;4.80;99.90;;;;;;5012218;28;20414;-86
2023/02/27 13:11:56;;;;;;;2.30;1.65;;;4.50;99.90;;;;;;5029641;28;20379;-84
2023/02/27 13:15:19;;;;;;;;;;;;;;;;;;;;;
2023/02/27 13:18:03;;;;;;;3.15;2.05;;;4.50;99.90;;;;;;5006391;28;22256;-86
2023/02/27 13:20:55;;;;;;;1.97;1.53;;;4.80;99.90;;;;;;5016361;28;20381;-89
2023/02/27 13:23:57;;;;;;;2.50;1.60;;;4.90;99.90;;;;;;5007602;28;20424;-86
2023/02/27 13:29:45;;;;;;;2.78;1.88;;;5.30;99.90;;;;;;5022172;28;20403;-86
2023/02/27 13:32:45;;;;;;;3.25;1.50;;;5.40;99.90;;;;;;5023108;28;20412;-87
2023/02/27 13:35:37;;;;;;;2.20;1.50;;;5.30;99.90;;;;;;5019766;28;20708;-86
2023/02/27 13:38:43;;;;;;;2.05;1.58;;;5.50;99.90;;;;;;5013512;28;20401;-86
2023/02/27 13:41:34;;;;;;;2.38;1.80;;;5.50;99.90;;;;;;5008856;28;20503;-85
2023/02/27 13:44:20;;;;;;;2.80;1.50;;;5.30;99.90;;;;;;5004600;28;20400;-91